sensor_id;sensor_type;location;lat;lon;timestamp;pressure;altitude;pressure_sealevel;temperature;humidity
9077;BME280;4574;51.072;17.174;2022-12-24T00:01:35;98931.81;;;8.73;100.00
9077;BME280;4574;51.072;17.174;2022-12-24T00:04:03;98937.75;;;8.75;100.00
9077;BME280;4574;51.072;17.174;2022-12-24T00:06:32;98929.50;;;8.78;100.00
9077;BME280;4574;51.072;17.174;2022-12-24T00:09:01;98938.06;;;8.80;100.00
9077;BME280;4574;51.072;17.174;2022-12-24T00:11:29;98918.44;;;8.74;100.00
9077;BME280;4574;51.072;17.174;2022-12-24T00:13:59;98927.50;;;8.80;100.00
9077;BME280;4574;51.072;17.174;2022-12-24T00:16:27;98927.50;;;8.80;100.00
9077;BME280;4574;51.072;17.174;2022-12-24T00:18:56;98900.50;;;8.70;100.00
9077;BME280;4574;51.072;17.174;2022-12-24T00:21:24;98916.63;;;8.75;100.00
9077;BME280;4574;51.072;17.174;2022-12-24T00:23:53;98920.41;;;8.72;100.00
9077;BME280;4574;51.072;17.174;2022-12-24T00:26:21;98911.84;;;8.62;100.00
9077;BME280;4574;51.072;17.174;2022-12-24T00:28:50;98918.97;;;8.62;100.00
9077;BME280;4574;51.072;17.174;2022-12-24T00:31:20;98932.63;;;8.65;100.00
9077;BME280;4574;51.072;17.174;2022-12-24T00:33:48;98934.59;;;8.63;100.00
9077;BME280;4574;51.072;17.174;2022-12-24T00:36:18;98938.75;;;8.66;100.00
9077;BME280;4574;51.072;17.174;2022-12-24T00:38:46;98926.88;;;8.62;100.00
9077;BME280;4574;51.072;17.174;2022-12-24T00:41:15;98919.13;;;8.60;100.00
9077;BME280;4574;51.072;17.174;2022-12-24T00:43:56;98926.22;;;8.60;100.00
9077;BME280;4574;51.072;17.174;2022-12-24T00:46:28;98933.94;;;8.61;100.00
9077;BME280;4574;51.072;17.174;2022-12-24T00:48:57;98934.78;;;8.62;100.00
9077;BME280;4574;51.072;17.174;2022-12-24T00:51:25;98938.88;;;8.64;100.00
9077;BME280;4574;51.072;17.174;2022-12-24T00:53:54;98929.84;;;8.59;100.00
9077;BME280;4574;51.072;17.174;2022-12-24T00:56:23;98933.13;;;8.61;100.00
9077;BME280;4574;51.072;17.174;2022-12-24T00:58:52;98927.34;;;8.57;100.00
9077;BME280;4574;51.072;17.174;2022-12-24T01:01:21;98929.00;;;8.58;100.00
9077;BME280;4574;51.072;17.174;2022-12-24T01:03:52;98931.31;;;8.61;100.00
9077;BME280;4574;51.072;17.174;2022-12-24T01:06:41;98931.31;;;8.61;100.00
9077;BME280;4574;51.072;17.174;2022-12-24T01:09:09;98931.50;;;8.60;100.00
9077;BME280;4574;51.072;17.174;2022-12-24T01:11:38;98935.13;;;8.59;100.00
9077;BME280;4574;51.072;17.174;2022-12-24T01:14:06;98928.00;;;8.59;100.00
9077;BME280;4574;51.072;17.174;2022-12-24T01:16:34;98929.19;;;8.57;100.00
9077;BME280;4574;51.072;17.174;2022-12-24T01:19:04;98944.81;;;8.58;100.00
9077;BME280;4574;51.072;17.174;2022-12-24T01:21:33;98930.19;;;8.56;100.00
9077;BME280;4574;51.072;17.174;2022-12-24T01:24:01;98930.19;;;8.56;100.00
9077;BME280;4574;51.072;17.174;2022-12-24T01:26:30;98924.06;;;8.55;100.00
9077;BME280;4574;51.072;17.174;2022-12-24T01:28:58;98924.06;;;8.55;100.00
9077;BME280;4574;51.072;17.174;2022-12-24T01:31:27;98921.94;;;8.51;100.00
9077;BME280;4574;51.072;17.174;2022-12-24T01:33:56;98924.91;;;8.56;100.00
9077;BME280;4574;51.072;17.174;2022-12-24T01:36:26;98927.88;;;8.61;100.00
9077;BME280;4574;51.072;17.174;2022-12-24T01:38:54;98926.22;;;8.60;100.00
9077;BME280;4574;51.072;17.174;2022-12-24T01:41:23;98926.03;;;8.61;100.00
9077;BME280;4574;51.072;17.174;2022-12-24T01:44:23;98931.16;;;8.63;100.00
9077;BME280;4574;51.072;17.174;2022-12-24T01:47:06;98930.66;;;8.59;100.00
9077;BME280;4574;51.072;17.174;2022-12-24T01:49:38;98925.88;;;8.63;100.00
9077;BME280;4574;51.072;17.174;2022-12-24T01:52:14;98920.59;;;8.63;100.00
9077;BME280;4574;51.072;17.174;2022-12-24T01:54:47;98938.88;;;8.64;100.00
9077;BME280;4574;51.072;17.174;2022-12-24T01:57:21;98944.16;;;8.64;100.00
9077;BME280;4574;51.072;17.174;2022-12-24T01:59:54;98938.56;;;8.67;100.00
9077;BME280;4574;51.072;17.174;2022-12-24T02:02:24;98935.25;;;8.65;100.00
9077;BME280;4574;51.072;17.174;2022-12-24T02:04:58;98933.47;;;8.66;100.00
9077;BME280;4574;51.072;17.174;2022-12-24T02:07:30;98935.25;;;8.65;100.00
9077;BME280;4574;51.072;17.174;2022-12-24T02:10:01;98920.28;;;8.58;100.00
9077;BME280;4574;51.072;17.174;2022-12-24T02:12:31;98921.59;;;8.54;100.00
9077;BME280;4574;51.072;17.174;2022-12-24T02:15:03;98927.03;;;8.52;100.00
9077;BME280;4574;51.072;17.174;2022-12-24T02:17:38;98923.88;;;8.49;100.00
9077;BME280;4574;51.072;17.174;2022-12-24T02:23:35;98912.34;;;8.34;100.00
9077;BME280;4574;51.072;17.174;2022-12-24T02:26:20;98914.16;;;8.33;100.00
9077;BME280;4574;51.072;17.174;2022-12-24T02:29:17;98913.50;;;8.31;100.00
9077;BME280;4574;51.072;17.174;2022-12-24T02:31:52;98897.19;;;8.20;100.00
9077;BME280;4574;51.072;17.174;2022-12-24T02:34:30;98906.25;;;8.25;100.00
9077;BME280;4574;51.072;17.174;2022-12-24T02:37:03;98913.00;;;8.28;100.00
9077;BME280;4574;51.072;17.174;2022-12-24T02:39:39;98912.84;;;8.29;100.00
9077;BME280;4574;51.072;17.174;2022-12-24T02:42:11;98911.03;;;8.30;100.00
9077;BME280;4574;51.072;17.174;2022-12-24T02:44:46;98901.47;;;8.29;100.00
9077;BME280;4574;51.072;17.174;2022-12-24T02:47:19;98918.94;;;8.30;100.00
9077;BME280;4574;51.072;17.174;2022-12-24T02:49:49;98911.03;;;8.30;100.00
9077;BME280;4574;51.072;17.174;2022-12-24T02:52:31;98908.38;;;8.30;100.00
9077;BME280;4574;51.072;17.174;2022-12-24T02:55:04;98909.03;;;8.24;100.00
9077;BME280;4574;51.072;17.174;2022-12-24T02:57:49;98922.88;;;8.26;100.00
9077;BME280;4574;51.072;17.174;2022-12-24T03:00:22;98919.13;;;8.28;100.00
9077;BME280;4574;51.072;17.174;2022-12-24T03:03:15;98930.97;;;8.32;100.00
9077;BME280;4574;51.072;17.174;2022-12-24T03:05:49;98932.13;;;8.38;100.00
9077;BME280;4574;51.072;17.174;2022-12-24T03:08:26;98923.22;;;8.39;100.00
9077;BME280;4574;51.072;17.174;2022-12-24T03:11:02;98923.56;;;8.36;100.00
9077;BME280;4574;51.072;17.174;2022-12-24T03:13:33;98923.06;;;8.32;100.00
9077;BME280;4574;51.072;17.174;2022-12-24T03:16:03;98930.31;;;8.38;100.00
9077;BME280;4574;51.072;17.174;2022-12-24T03:18:36;98927.50;;;8.40;100.00
9077;BME280;4574;51.072;17.174;2022-12-24T03:21:10;98929.00;;;8.42;100.00
9077;BME280;4574;51.072;17.174;2022-12-24T03:23:39;98928.69;;;8.45;100.00
9077;BME280;4574;51.072;17.174;2022-12-24T03:26:10;98935.75;;;8.45;100.00
9077;BME280;4574;51.072;17.174;2022-12-24T03:28:40;98926.50;;;8.41;100.00
9077;BME280;4574;51.072;17.174;2022-12-24T03:31:09;98927.84;;;8.45;100.00
9077;BME280;4574;51.072;17.174;2022-12-24T03:33:40;98929.47;;;8.46;100.00
9077;BME280;4574;51.072;17.174;2022-12-24T03:36:09;98910.03;;;8.47;100.00
9077;BME280;4574;51.072;17.174;2022-12-24T03:38:38;98917.94;;;8.47;100.00
9077;BME280;4574;51.072;17.174;2022-12-24T03:41:07;98917.13;;;8.46;100.00
9077;BME280;4574;51.072;17.174;2022-12-24T03:43:35;98927.22;;;8.51;100.00
9077;BME280;4574;51.072;17.174;2022-12-24T03:46:05;98933.44;;;8.50;100.00
9077;BME280;4574;51.072;17.174;2022-12-24T03:48:34;98939.41;;;8.52;100.00
9077;BME280;4574;51.072;17.174;2022-12-24T03:51:04;98935.59;;;8.54;100.00
9077;BME280;4574;51.072;17.174;2022-12-24T03:53:33;98936.25;;;8.56;100.00
9077;BME280;4574;51.072;17.174;2022-12-24T03:56:01;98944.16;;;8.56;100.00
9077;BME280;4574;51.072;17.174;2022-12-24T03:58:30;98955.56;;;8.57;100.00
9077;BME280;4574;51.072;17.174;2022-12-24T04:00:58;98951.28;;;8.56;100.00
9077;BME280;4574;51.072;17.174;2022-12-24T04:03:27;98953.72;;;8.57;100.00
9077;BME280;4574;51.072;17.174;2022-12-24T04:06:01;98952.59;;;8.60;100.00
9077;BME280;4574;51.072;17.174;2022-12-24T04:08:31;98950.59;;;8.62;100.00
9077;BME280;4574;51.072;17.174;2022-12-24T04:11:00;98957.53;;;8.63;100.00
9077;BME280;4574;51.072;17.174;2022-12-24T04:13:35;98946.00;;;8.64;100.00
9077;BME280;4574;51.072;17.174;2022-12-24T04:16:06;98945.34;;;8.70;100.00
9077;BME280;4574;51.072;17.174;2022-12-24T04:18:36;98943.69;;;8.77;100.00
9077;BME280;4574;51.072;17.174;2022-12-24T04:21:05;98943.47;;;8.86;100.00
9077;BME280;4574;51.072;17.174;2022-12-24T04:23:36;98952.56;;;8.92;100.00
9077;BME280;4574;51.072;17.174;2022-12-24T04:26:07;98957.84;;;8.92;100.00
9077;BME280;4574;51.072;17.174;2022-12-24T04:28:36;98956.69;;;8.86;100.00
9077;BME280;4574;51.072;17.174;2022-12-24T04:31:06;98961.81;;;8.88;100.00
9077;BME280;4574;51.072;17.174;2022-12-24T04:33:35;98959.81;;;8.90;100.00
9077;BME280;4574;51.072;17.174;2022-12-24T04:36:05;98963.44;;;8.97;100.00
9077;BME280;4574;51.072;17.174;2022-12-24T04:38:35;98958.50;;;9.02;100.00
9077;BME280;4574;51.072;17.174;2022-12-24T04:41:05;98952.88;;;9.05;100.00
9077;BME280;4574;51.072;17.174;2022-12-24T04:43:34;98954.19;;;9.09;100.00
9077;BME280;4574;51.072;17.174;2022-12-24T04:46:04;98933.75;;;9.03;100.00
9077;BME280;4574;51.072;17.174;2022-12-24T04:48:33;98950.69;;;9.16;100.00
9077;BME280;4574;51.072;17.174;2022-12-24T04:51:03;98951.19;;;9.20;100.00
9077;BME280;4574;51.072;17.174;2022-12-24T04:53:32;98949.53;;;9.27;100.00
9077;BME280;4574;51.072;17.174;2022-12-24T04:56:03;98960.75;;;9.28;100.00
9077;BME280;4574;51.072;17.174;2022-12-24T04:58:32;98952.28;;;9.33;100.00
9077;BME280;4574;51.072;17.174;2022-12-24T05:01:03;98967.00;;;9.35;100.00
9077;BME280;4574;51.072;17.174;2022-12-24T05:03:32;98963.34;;;9.36;100.00
9077;BME280;4574;51.072;17.174;2022-12-24T05:06:01;98965.84;;;9.38;100.00
9077;BME280;4574;51.072;17.174;2022-12-24T05:08:30;98971.94;;;9.38;100.00
9077;BME280;4574;51.072;17.174;2022-12-24T05:11:00;98975.06;;;9.42;100.00
9077;BME280;4574;51.072;17.174;2022-12-24T05:13:31;98977.19;;;9.46;100.00
9077;BME280;4574;51.072;17.174;2022-12-24T05:16:12;98981.66;;;9.46;100.00
9077;BME280;4574;51.072;17.174;2022-12-24T05:18:40;98994.53;;;9.49;100.00
9077;BME280;4574;51.072;17.174;2022-12-24T05:21:10;98984.78;;;9.49;100.00
9077;BME280;4574;51.072;17.174;2022-12-24T05:23:40;98984.94;;;9.56;100.00
9077;BME280;4574;51.072;17.174;2022-12-24T05:26:28;98988.03;;;9.59;100.00
9077;BME280;4574;51.072;17.174;2022-12-24T05:29:00;98981.41;;;9.63;100.00
9077;BME280;4574;51.072;17.174;2022-12-24T05:31:30;98991.84;;;9.65;100.00
9077;BME280;4574;51.072;17.174;2022-12-24T05:34:01;99000.41;;;9.67;100.00
9077;BME280;4574;51.072;17.174;2022-12-24T05:36:29;99002.56;;;9.63;100.00
9077;BME280;4574;51.072;17.174;2022-12-24T05:38:58;98998.59;;;9.67;100.00
9077;BME280;4574;51.072;17.174;2022-12-24T05:41:27;99004.84;;;9.66;100.00
9077;BME280;4574;51.072;17.174;2022-12-24T05:43:55;99020.56;;;9.68;100.00
9077;BME280;4574;51.072;17.174;2022-12-24T05:46:25;99016.09;;;9.68;100.00
9077;BME280;4574;51.072;17.174;2022-12-24T05:48:54;99022.03;;;9.70;100.00
9077;BME280;4574;51.072;17.174;2022-12-24T05:51:23;99027.50;;;9.69;100.00
9077;BME280;4574;51.072;17.174;2022-12-24T05:53:51;99026.66;;;9.68;100.00
9077;BME280;4574;51.072;17.174;2022-12-24T05:56:21;99028.28;;;9.69;100.00
9077;BME280;4574;51.072;17.174;2022-12-24T05:58:52;99029.91;;;9.78;100.00
9077;BME280;4574;51.072;17.174;2022-12-24T06:01:21;99028.47;;;9.76;100.00
9077;BME280;4574;51.072;17.174;2022-12-24T06:03:52;99043.00;;;9.72;100.00
9077;BME280;4574;51.072;17.174;2022-12-24T06:06:22;99035.41;;;9.69;100.00
9077;BME280;4574;51.072;17.174;2022-12-24T06:08:52;99043.00;;;9.72;100.00
9077;BME280;4574;51.072;17.174;2022-12-24T06:11:22;99047.44;;;9.71;100.00
9077;BME280;4574;51.072;17.174;2022-12-24T06:13:52;99048.28;;;9.72;100.00
9077;BME280;4574;51.072;17.174;2022-12-24T06:16:21;99050.28;;;9.70;100.00
9077;BME280;4574;51.072;17.174;2022-12-24T06:18:52;99059.66;;;9.72;100.00
9077;BME280;4574;51.072;17.174;2022-12-24T06:21:21;99057.03;;;9.72;100.00
9077;BME280;4574;51.072;17.174;2022-12-24T06:23:50;99059.31;;;9.75;100.00
9077;BME280;4574;51.072;17.174;2022-12-24T06:26:20;99061.31;;;9.73;100.00
9077;BME280;4574;51.072;17.174;2022-12-24T06:28:50;99069.44;;;9.72;100.00
9077;BME280;4574;51.072;17.174;2022-12-24T06:31:21;99075.06;;;9.69;100.00
9077;BME280;4574;51.072;17.174;2022-12-24T06:33:52;99073.06;;;9.71;100.00
9077;BME280;4574;51.072;17.174;2022-12-24T06:36:23;99080.81;;;9.72;100.00
9077;BME280;4574;51.072;17.174;2022-12-24T06:38:53;99082.78;;;9.70;100.00
9077;BME280;4574;51.072;17.174;2022-12-24T06:41:22;99087.91;;;9.72;100.00
9077;BME280;4574;51.072;17.174;2022-12-24T06:43:52;99086.75;;;9.66;100.00
9077;BME280;4574;51.072;17.174;2022-12-24T06:46:20;99097.34;;;9.66;100.00
9077;BME280;4574;51.072;17.174;2022-12-24T06:48:49;99098.50;;;9.64;100.00
9077;BME280;4574;51.072;17.174;2022-12-24T06:51:19;99099.66;;;9.61;100.00
9077;BME280;4574;51.072;17.174;2022-12-24T06:53:48;99098.50;;;9.64;100.00
9077;BME280;4574;51.072;17.174;2022-12-24T06:56:18;99109.56;;;9.67;100.00
9077;BME280;4574;51.072;17.174;2022-12-24T06:58:49;99116.66;;;9.67;100.00
9077;BME280;4574;51.072;17.174;2022-12-24T07:01:19;99116.81;;;9.65;100.00
9077;BME280;4574;51.072;17.174;2022-12-24T07:03:48;99116.16;;;9.63;100.00
9077;BME280;4574;51.072;17.174;2022-12-24T07:06:20;99131.34;;;9.69;100.00
9077;BME280;4574;51.072;17.174;2022-12-24T07:08:51;99123.75;;;9.66;100.00
9077;BME280;4574;51.072;17.174;2022-12-24T07:11:19;99134.31;;;9.66;100.00
9077;BME280;4574;51.072;17.174;2022-12-24T07:13:48;99151.81;;;9.67;100.00
9077;BME280;4574;51.072;17.174;2022-12-24T07:16:16;99141.44;;;9.58;100.00
9077;BME280;4574;51.072;17.174;2022-12-24T07:18:47;99145.41;;;9.62;100.00
9077;BME280;4574;51.072;17.174;2022-12-24T07:21:15;99159.94;;;9.66;100.00
9077;BME280;4574;51.072;17.174;2022-12-24T07:23:45;99157.44;;;9.64;100.00
9077;BME280;4574;51.072;17.174;2022-12-24T07:26:16;99172.97;;;9.67;100.00
9077;BME280;4574;51.072;17.174;2022-12-24T07:28:45;99179.25;;;9.66;100.00
9077;BME280;4574;51.072;17.174;2022-12-24T07:31:13;99192.13;;;9.69;100.00
9077;BME280;4574;51.072;17.174;2022-12-24T07:33:42;99190.66;;;9.67;100.00
9077;BME280;4574;51.072;17.174;2022-12-24T07:36:16;99195.09;;;9.66;100.00
9077;BME280;4574;51.072;17.174;2022-12-24T07:38:47;99211.47;;;9.70;100.00
9077;BME280;4574;51.072;17.174;2022-12-24T07:41:16;99220.53;;;9.67;100.00
9077;BME280;4574;51.072;17.174;2022-12-24T07:43:44;99205.19;;;9.63;100.00
9077;BME280;4574;51.072;17.174;2022-12-24T07:46:13;99205.84;;;9.65;100.00
9077;BME280;4574;51.072;17.174;2022-12-24T07:48:41;99215.25;;;9.67;100.00
9077;BME280;4574;51.072;17.174;2022-12-24T07:51:10;99208.63;;;9.63;100.00
9077;BME280;4574;51.072;17.174;2022-12-24T07:53:38;99234.41;;;9.69;100.00
9077;BME280;4574;51.072;17.174;2022-12-24T07:56:15;99232.94;;;9.67;100.00
9077;BME280;4574;51.072;17.174;2022-12-24T07:58:44;99236.72;;;9.64;100.00
9077;BME280;4574;51.072;17.174;2022-12-24T08:01:12;99245.63;;;9.63;100.00
9077;BME280;4574;51.072;17.174;2022-12-24T08:03:41;99251.75;;;9.64;100.00
9077;BME280;4574;51.072;17.174;2022-12-24T08:06:10;99246.47;;;9.64;100.00
9077;BME280;4574;51.072;17.174;2022-12-24T08:08:39;99252.06;;;9.61;100.00
9077;BME280;4574;51.072;17.174;2022-12-24T08:11:07;99254.38;;;9.56;100.00
9077;BME280;4574;51.072;17.174;2022-12-24T08:13:37;99251.25;;;9.60;100.00
9077;BME280;4574;51.072;17.174;2022-12-24T08:16:06;99267.41;;;9.57;100.00
9077;BME280;4574;51.072;17.174;2022-12-24T08:18:35;99269.41;;;9.55;100.00
9077;BME280;4574;51.072;17.174;2022-12-24T08:21:05;99287.75;;;9.57;100.00
9077;BME280;4574;51.072;17.174;2022-12-24T08:23:34;99283.28;;;9.57;100.00
9077;BME280;4574;51.072;17.174;2022-12-24T08:26:05;99289.72;;;9.55;100.00
9077;BME280;4574;51.072;17.174;2022-12-24T08:28:34;99295.16;;;9.53;100.00
9077;BME280;4574;51.072;17.174;2022-12-24T08:31:05;99304.25;;;9.51;100.00
9077;BME280;4574;51.072;17.174;2022-12-24T08:33:34;99305.06;;;9.51;100.00
9077;BME280;4574;51.072;17.174;2022-12-24T08:36:03;99306.72;;;9.52;100.00
9077;BME280;4574;51.072;17.174;2022-12-24T08:38:31;99312.97;;;9.51;100.00
9077;BME280;4574;51.072;17.174;2022-12-24T08:41:00;99307.19;;;9.40;100.00
9077;BME280;4574;51.072;17.174;2022-12-24T08:43:29;99330.00;;;9.49;100.00
9077;BME280;4574;51.072;17.174;2022-12-24T08:46:01;99337.06;;;9.48;100.00
9077;BME280;4574;51.072;17.174;2022-12-24T08:48:32;99335.41;;;9.47;100.00
9077;BME280;4574;51.072;17.174;2022-12-24T08:51:06;99347.97;;;9.45;100.00
9077;BME280;4574;51.072;17.174;2022-12-24T08:53:35;99349.13;;;9.43;100.00
9077;BME280;4574;51.072;17.174;2022-12-24T08:56:06;99349.13;;;9.43;100.00
9077;BME280;4574;51.072;17.174;2022-12-24T08:58:35;99355.41;;;9.42;100.00
9077;BME280;4574;51.072;17.174;2022-12-24T09:01:10;99363.66;;;9.39;100.00
9077;BME280;4574;51.072;17.174;2022-12-24T09:03:41;99365.44;;;9.38;100.00
9077;BME280;4574;51.072;17.174;2022-12-24T09:06:10;99367.56;;;9.35;100.00
9077;BME280;4574;51.072;17.174;2022-12-24T09:08:39;99378.97;;;9.35;100.00
9077;BME280;4574;51.072;17.174;2022-12-24T09:11:09;99383.56;;;9.33;100.00
9077;BME280;4574;51.072;17.174;2022-12-24T09:13:38;99373.16;;;9.32;100.00
9077;BME280;4574;51.072;17.174;2022-12-24T09:16:08;99381.06;;;9.32;100.00
9077;BME280;4574;51.072;17.174;2022-12-24T09:18:37;99376.66;;;9.32;100.00
9077;BME280;4574;51.072;17.174;2022-12-24T09:21:09;99380.41;;;9.30;100.00
9077;BME280;4574;51.072;17.174;2022-12-24T09:23:41;99381.25;;;9.30;100.00
9077;BME280;4574;51.072;17.174;2022-12-24T09:26:13;99393.94;;;9.27;100.00
9077;BME280;4574;51.072;17.174;2022-12-24T09:28:42;99392.13;;;9.27;100.00
9077;BME280;4574;51.072;17.174;2022-12-24T09:31:11;99406.00;;;9.29;100.00
9077;BME280;4574;51.072;17.174;2022-12-24T09:33:42;99403.50;;;9.28;100.00
9077;BME280;4574;51.072;17.174;2022-12-24T09:36:12;99410.75;;;9.26;100.00
9077;BME280;4574;51.072;17.174;2022-12-24T09:38:41;99410.44;;;9.29;100.00
9077;BME280;4574;51.072;17.174;2022-12-24T09:41:12;99412.28;;;9.28;100.00
9077;BME280;4574;51.072;17.174;2022-12-24T09:43:45;99426.97;;;9.31;100.00
9077;BME280;4574;51.072;17.174;2022-12-24T09:46:21;99428.78;;;9.30;100.00
9077;BME280;4574;51.072;17.174;2022-12-24T09:48:54;99437.03;;;9.27;100.00
9077;BME280;4574;51.072;17.174;2022-12-24T09:51:30;99433.72;;;9.26;100.00
9077;BME280;4574;51.072;17.174;2022-12-24T09:54:03;99445.56;;;9.22;100.00
9077;BME280;4574;51.072;17.174;2022-12-24T09:56:37;99444.25;;;9.18;100.00
9077;BME280;4574;51.072;17.174;2022-12-24T09:59:10;99455.78;;;9.17;100.00
9077;BME280;4574;51.072;17.174;2022-12-24T10:01:41;99462.72;;;9.18;100.00
9077;BME280;4574;51.072;17.174;2022-12-24T10:04:12;99465.34;;;9.18;100.00
9077;BME280;4574;51.072;17.174;2022-12-24T10:06:48;99450.59;;;9.07;100.00
9077;BME280;4574;51.072;17.174;2022-12-24T10:09:26;99468.97;;;9.17;100.00
9077;BME280;4574;51.072;17.174;2022-12-24T10:12:03;99454.88;;;9.08;100.00
9077;BME280;4574;51.072;17.174;2022-12-24T10:14:46;99470.94;;;9.15;100.00
9077;BME280;4574;51.072;17.174;2022-12-24T10:17:29;99483.16;;;9.16;100.00
9077;BME280;4574;51.072;17.174;2022-12-24T10:20:16;99456.81;;;8.98;100.00
9077;BME280;4574;51.072;17.174;2022-12-24T10:22:53;99484.09;;;9.07;100.00
9077;BME280;4574;51.072;17.174;2022-12-24T10:25:28;99482.94;;;9.09;100.00
9077;BME280;4574;51.072;17.174;2022-12-24T10:27:59;99479.63;;;9.07;100.00
9077;BME280;4574;51.072;17.174;2022-12-24T10:30:29;99502.28;;;9.10;100.00
9077;BME280;4574;51.072;17.174;2022-12-24T10:32:58;99508.53;;;9.09;100.00
9077;BME280;4574;51.072;17.174;2022-12-24T10:35:28;99498.28;;;9.06;100.00
9077;BME280;4574;51.072;17.174;2022-12-24T10:38:01;99512.84;;;9.10;100.00
9077;BME280;4574;51.072;17.174;2022-12-24T10:40:34;99493.13;;;9.04;100.00
9077;BME280;4574;51.072;17.174;2022-12-24T10:43:12;99518.13;;;9.10;100.00
9077;BME280;4574;51.072;17.174;2022-12-24T10:45:44;99512.84;;;9.10;100.00
9077;BME280;4574;51.072;17.174;2022-12-24T10:48:20;99529.34;;;9.12;100.00
9077;BME280;4574;51.072;17.174;2022-12-24T10:50:53;99525.34;;;9.08;100.00
9077;BME280;4574;51.072;17.174;2022-12-24T10:53:31;99524.81;;;9.04;100.00
9077;BME280;4574;51.072;17.174;2022-12-24T10:56:03;99539.00;;;9.03;100.00
9077;BME280;4574;51.072;17.174;2022-12-24T10:58:33;99539.84;;;9.04;100.00
9077;BME280;4574;51.072;17.174;2022-12-24T11:01:02;99547.78;;;9.04;100.00
9077;BME280;4574;51.072;17.174;2022-12-24T11:03:32;99556.00;;;9.01;100.00
9077;BME280;4574;51.072;17.174;2022-12-24T11:06:06;99539.78;;;8.96;100.00
9077;BME280;4574;51.072;17.174;2022-12-24T11:08:40;99559.25;;;8.95;100.00
9077;BME280;4574;51.072;17.174;2022-12-24T11:11:11;99561.22;;;8.93;100.00
9077;BME280;4574;51.072;17.174;2022-12-24T11:13:43;99561.88;;;8.95;100.00
9077;BME280;4574;51.072;17.174;2022-12-24T11:16:16;99558.56;;;8.93;100.00
9077;BME280;4574;51.072;17.174;2022-12-24T11:18:49;99570.91;;;8.92;100.00
9077;BME280;4574;51.072;17.174;2022-12-24T11:21:23;99572.06;;;8.90;100.00
9077;BME280;4574;51.072;17.174;2022-12-24T11:23:57;99569.81;;;8.95;100.00
9077;BME280;4574;51.072;17.174;2022-12-24T11:26:28;99573.78;;;8.99;100.00
9077;BME280;4574;51.072;17.174;2022-12-24T11:29:10;99581.84;;;8.97;100.00
9077;BME280;4574;51.072;17.174;2022-12-24T11:31:41;99584.19;;;9.00;100.00
9077;BME280;4574;51.072;17.174;2022-12-24T11:34:30;99582.22;;;9.02;100.00
9077;BME280;4574;51.072;17.174;2022-12-24T11:37:08;99591.97;;;9.02;100.00
9077;BME280;4574;51.072;17.174;2022-12-24T11:39:45;99604.19;;;9.03;100.00
9077;BME280;4574;51.072;17.174;2022-12-24T11:42:31;99600.88;;;9.01;100.00
9077;BME280;4574;51.072;17.174;2022-12-24T11:45:03;99610.44;;;9.02;100.00
9077;BME280;4574;51.072;17.174;2022-12-24T11:47:34;99612.53;;;8.98;100.00
9077;BME280;4574;51.072;17.174;2022-12-24T11:50:25;99618.06;;;9.05;100.00
9077;BME280;4574;51.072;17.174;2022-12-24T11:53:05;99620.53;;;9.06;100.00
9077;BME280;4574;51.072;17.174;2022-12-24T11:55:43;99621.06;;;9.10;100.00
9077;BME280;4574;51.072;17.174;2022-12-24T11:58:21;99628.81;;;9.11;100.00
9077;BME280;4574;51.072;17.174;2022-12-24T12:00:59;99629.66;;;9.12;100.00
9077;BME280;4574;51.072;17.174;2022-12-24T12:03:39;99631.63;;;9.10;100.00
9077;BME280;4574;51.072;17.174;2022-12-24T12:06:29;99642.09;;;9.19;100.00
9077;BME280;4574;51.072;17.174;2022-12-24T12:09:02;99638.66;;;9.19;100.00
9077;BME280;4574;51.072;17.174;2022-12-24T12:11:34;99640.97;;;9.22;100.00
9077;BME280;4574;51.072;17.174;2022-12-24T12:14:12;99641.97;;;9.21;100.00
9077;BME280;4574;51.072;17.174;2022-12-24T12:16:47;99651.25;;;9.25;100.00
9077;BME280;4574;51.072;17.174;2022-12-24T12:19:36;99656.53;;;9.25;100.00
9077;BME280;4574;51.072;17.174;2022-12-24T12:22:12;99662.31;;;9.28;100.00
9077;BME280;4574;51.072;17.174;2022-12-24T12:24:48;99661.19;;;9.30;100.00
9077;BME280;4574;51.072;17.174;2022-12-24T12:27:26;99660.88;;;9.33;100.00
9077;BME280;4574;51.072;17.174;2022-12-24T12:29:58;99669.50;;;9.35;100.00
9077;BME280;4574;51.072;17.174;2022-12-24T12:32:40;99669.19;;;9.38;100.00
9077;BME280;4574;51.072;17.174;2022-12-24T12:35:18;99673.34;;;9.41;100.00
9077;BME280;4574;51.072;17.174;2022-12-24T12:37:54;99662.53;;;9.34;100.00
9077;BME280;4574;51.072;17.174;2022-12-24T12:40:41;99679.31;;;9.43;100.00
9077;BME280;4574;51.072;17.174;2022-12-24T12:43:25;99679.13;;;9.44;100.00
9077;BME280;4574;51.072;17.174;2022-12-24T12:45:59;99686.75;;;9.47;100.00
9077;BME280;4574;51.072;17.174;2022-12-24T12:48:47;99684.66;;;9.51;100.00
9077;BME280;4574;51.072;17.174;2022-12-24T12:51:27;99682.38;;;9.56;100.00
9077;BME280;4574;51.072;17.174;2022-12-24T12:54:15;99689.84;;;9.60;100.00
9077;BME280;4574;51.072;17.174;2022-12-24T12:56:50;99696.47;;;9.64;100.00
9077;BME280;4574;51.072;17.174;2022-12-24T12:59:29;99702.28;;;9.68;100.00
9077;BME280;4574;51.072;17.174;2022-12-24T13:02:08;99704.09;;;9.67;100.00
9077;BME280;4574;51.072;17.174;2022-12-24T13:05:06;99693.69;;;9.66;100.00
9077;BME280;4574;51.072;17.174;2022-12-24T13:07:56;99713.69;;;9.68;100.00
9077;BME280;4574;51.072;17.174;2022-12-24T13:13:46;99720.50;;;9.71;100.00
9077;BME280;4574;51.072;17.174;2022-12-24T13:16:42;99729.91;;;9.73;100.00
9077;BME280;4574;51.072;17.174;2022-12-24T13:19:37;99726.28;;;9.74;100.00
9077;BME280;4574;51.072;17.174;2022-12-24T13:22:14;99727.13;;;9.75;100.00
9077;BME280;4574;51.072;17.174;2022-12-24T13:24:47;99722.34;;;9.78;100.00
9077;BME280;4574;51.072;17.174;2022-12-24T13:27:20;99731.25;;;9.77;100.00
9077;BME280;4574;51.072;17.174;2022-12-24T13:29:53;99728.13;;;9.74;100.00
9077;BME280;4574;51.072;17.174;2022-12-24T13:32:54;99733.84;;;9.69;100.00
9077;BME280;4574;51.072;17.174;2022-12-24T13:35:29;99734.31;;;9.65;100.00
9077;BME280;4574;51.072;17.174;2022-12-24T13:44:27;99745.31;;;9.60;100.00
9077;BME280;4574;51.072;17.174;2022-12-24T13:47:19;99749.31;;;9.64;100.00
9077;BME280;4574;51.072;17.174;2022-12-24T13:50:16;99755.97;;;9.68;100.00
9077;BME280;4574;51.072;17.174;2022-12-24T13:52:50;99752.66;;;9.66;100.00